sensor_id;sensor_type;location;lat;lon;timestamp;P1;durP1;ratioP1;P2;durP2;ratioP2
17365;SDS011;8800;50.118;9.900;2023-04-28T00:00:54;8.40;;;4.70;;
17365;SDS011;8800;50.118;9.900;2023-04-28T00:03:20;15.60;;;4.80;;
17365;SDS011;8800;50.118;9.900;2023-04-28T00:05:47;13.52;;;4.75;;
17365;SDS011;8800;50.118;9.900;2023-04-28T00:08:13;11.48;;;4.60;;
17365;SDS011;8800;50.118;9.900;2023-04-28T00:10:40;10.43;;;4.35;;
17365;SDS011;8800;50.118;9.900;2023-04-28T00:13:07;10.90;;;4.40;;
17365;SDS011;8800;50.118;9.900;2023-04-28T00:15:35;8.73;;;4.38;;
17365;SDS011;8800;50.118;9.900;2023-04-28T00:18:01;9.35;;;4.25;;
17365;SDS011;8800;50.118;9.900;2023-04-28T00:20:27;9.07;;;4.03;;
17365;SDS011;8800;50.118;9.900;2023-04-28T00:22:54;6.85;;;4.15;;
17365;SDS011;8800;50.118;9.900;2023-04-28T00:25:20;9.48;;;3.78;;
17365;SDS011;8800;50.118;9.900;2023-04-28T00:27:46;10.88;;;4.20;;
17365;SDS011;8800;50.118;9.900;2023-04-28T00:30:14;8.43;;;4.00;;
17365;SDS011;8800;50.118;9.900;2023-04-28T00:32:41;7.20;;;4.25;;
17365;SDS011;8800;50.118;9.900;2023-04-28T00:35:08;9.27;;;4.18;;
17365;SDS011;8800;50.118;9.900;2023-04-28T00:37:34;8.15;;;3.92;;
17365;SDS011;8800;50.118;9.900;2023-04-28T00:40:01;7.25;;;4.10;;
17365;SDS011;8800;50.118;9.900;2023-04-28T00:42:27;7.13;;;3.78;;
17365;SDS011;8800;50.118;9.900;2023-04-28T00:44:54;8.57;;;3.92;;
17365;SDS011;8800;50.118;9.900;2023-04-28T00:47:22;8.10;;;3.97;;
17365;SDS011;8800;50.118;9.900;2023-04-28T00:49:48;8.85;;;3.80;;
17365;SDS011;8800;50.118;9.900;2023-04-28T00:52:15;6.03;;;3.70;;
17365;SDS011;8800;50.118;9.900;2023-04-28T00:54:41;8.75;;;4.10;;
17365;SDS011;8800;50.118;9.900;2023-04-28T00:57:08;7.45;;;3.85;;
17365;SDS011;8800;50.118;9.900;2023-04-28T00:59:35;7.93;;;3.83;;
17365;SDS011;8800;50.118;9.900;2023-04-28T01:02:01;8.85;;;3.72;;
17365;SDS011;8800;50.118;9.900;2023-04-28T01:04:30;12.05;;;4.03;;
17365;SDS011;8800;50.118;9.900;2023-04-28T01:06:56;6.68;;;3.53;;
17365;SDS011;8800;50.118;9.900;2023-04-28T01:09:23;10.32;;;4.18;;
17365;SDS011;8800;50.118;9.900;2023-04-28T01:11:50;5.93;;;3.85;;
17365;SDS011;8800;50.118;9.900;2023-04-28T01:14:16;12.73;;;4.50;;
17365;SDS011;8800;50.118;9.900;2023-04-28T01:16:43;7.78;;;3.60;;
17365;SDS011;8800;50.118;9.900;2023-04-28T01:19:11;7.03;;;3.67;;
17365;SDS011;8800;50.118;9.900;2023-04-28T01:21:41;6.43;;;3.67;;
17365;SDS011;8800;50.118;9.900;2023-04-28T01:24:09;6.85;;;3.20;;
17365;SDS011;8800;50.118;9.900;2023-04-28T01:26:36;6.45;;;3.55;;
17365;SDS011;8800;50.118;9.900;2023-04-28T01:29:02;7.38;;;3.25;;
17365;SDS011;8800;50.118;9.900;2023-04-28T01:31:28;7.40;;;3.60;;
17365;SDS011;8800;50.118;9.900;2023-04-28T01:33:55;7.28;;;3.58;;
17365;SDS011;8800;50.118;9.900;2023-04-28T01:36:22;6.97;;;3.28;;
17365;SDS011;8800;50.118;9.900;2023-04-28T01:38:48;7.43;;;3.67;;
17365;SDS011;8800;50.118;9.900;2023-04-28T01:41:16;7.50;;;3.78;;
17365;SDS011;8800;50.118;9.900;2023-04-28T01:43:43;7.07;;;3.45;;
17365;SDS011;8800;50.118;9.900;2023-04-28T01:46:09;6.18;;;3.53;;
17365;SDS011;8800;50.118;9.900;2023-04-28T01:48:36;8.25;;;4.18;;
17365;SDS011;8800;50.118;9.900;2023-04-28T01:51:02;7.32;;;3.55;;
17365;SDS011;8800;50.118;9.900;2023-04-28T01:53:29;5.00;;;3.60;;
17365;SDS011;8800;50.118;9.900;2023-04-28T01:55:56;8.25;;;4.05;;
17365;SDS011;8800;50.118;9.900;2023-04-28T01:58:23;8.77;;;3.85;;
17365;SDS011;8800;50.118;9.900;2023-04-28T02:00:50;7.30;;;3.90;;
17365;SDS011;8800;50.118;9.900;2023-04-28T02:03:16;6.30;;;3.70;;
17365;SDS011;8800;50.118;9.900;2023-04-28T02:05:43;7.95;;;3.92;;
17365;SDS011;8800;50.118;9.900;2023-04-28T02:08:09;7.05;;;4.10;;
17365;SDS011;8800;50.118;9.900;2023-04-28T02:10:35;8.70;;;4.30;;
17365;SDS011;8800;50.118;9.900;2023-04-28T02:13:02;6.85;;;3.45;;
17365;SDS011;8800;50.118;9.900;2023-04-28T02:15:30;6.22;;;3.60;;
17365;SDS011;8800;50.118;9.900;2023-04-28T02:17:56;10.38;;;4.13;;
17365;SDS011;8800;50.118;9.900;2023-04-28T02:20:22;8.73;;;3.85;;
17365;SDS011;8800;50.118;9.900;2023-04-28T02:22:49;7.50;;;3.75;;
17365;SDS011;8800;50.118;9.900;2023-04-28T02:25:15;7.50;;;3.70;;
17365;SDS011;8800;50.118;9.900;2023-04-28T02:27:42;9.68;;;3.72;;
17365;SDS011;8800;50.118;9.900;2023-04-28T02:30:08;9.40;;;3.95;;
17365;SDS011;8800;50.118;9.900;2023-04-28T02:32:36;8.90;;;3.67;;
17365;SDS011;8800;50.118;9.900;2023-04-28T02:35:02;10.88;;;3.90;;
17365;SDS011;8800;50.118;9.900;2023-04-28T02:37:29;7.50;;;3.97;;
17365;SDS011;8800;50.118;9.900;2023-04-28T02:39:55;6.30;;;3.88;;
17365;SDS011;8800;50.118;9.900;2023-04-28T02:42:22;6.97;;;3.65;;
17365;SDS011;8800;50.118;9.900;2023-04-28T02:44:48;8.05;;;4.43;;
17365;SDS011;8800;50.118;9.900;2023-04-28T02:47:14;7.18;;;3.70;;
17365;SDS011;8800;50.118;9.900;2023-04-28T02:49:42;8.90;;;3.88;;
17365;SDS011;8800;50.118;9.900;2023-04-28T02:52:09;12.70;;;4.28;;
17365;SDS011;8800;50.118;9.900;2023-04-28T02:54:35;13.18;;;4.40;;
17365;SDS011;8800;50.118;9.900;2023-04-28T02:57:01;8.38;;;4.07;;
17365;SDS011;8800;50.118;9.900;2023-04-28T02:59:28;7.95;;;3.97;;
17365;SDS011;8800;50.118;9.900;2023-04-28T03:01:55;6.68;;;3.75;;
17365;SDS011;8800;50.118;9.900;2023-04-28T03:04:21;9.38;;;4.57;;
17365;SDS011;8800;50.118;9.900;2023-04-28T03:06:49;8.05;;;4.13;;
17365;SDS011;8800;50.118;9.900;2023-04-28T03:09:16;11.13;;;3.92;;
17365;SDS011;8800;50.118;9.900;2023-04-28T03:11:43;9.75;;;3.97;;
17365;SDS011;8800;50.118;9.900;2023-04-28T03:14:09;9.00;;;3.78;;
17365;SDS011;8800;50.118;9.900;2023-04-28T03:16:36;11.00;;;4.30;;
17365;SDS011;8800;50.118;9.900;2023-04-28T03:19:03;6.18;;;3.65;;
17365;SDS011;8800;50.118;9.900;2023-04-28T03:21:29;8.93;;;4.03;;
17365;SDS011;8800;50.118;9.900;2023-04-28T03:23:57;10.10;;;4.55;;
17365;SDS011;8800;50.118;9.900;2023-04-28T03:26:24;8.60;;;3.80;;
17365;SDS011;8800;50.118;9.900;2023-04-28T03:28:50;10.27;;;4.00;;
17365;SDS011;8800;50.118;9.900;2023-04-28T03:31:17;8.98;;;3.72;;
17365;SDS011;8800;50.118;9.900;2023-04-28T03:33:43;13.13;;;4.03;;
17365;SDS011;8800;50.118;9.900;2023-04-28T03:36:11;8.27;;;3.95;;
17365;SDS011;8800;50.118;9.900;2023-04-28T03:38:37;11.90;;;4.10;;
17365;SDS011;8800;50.118;9.900;2023-04-28T03:41:05;12.23;;;4.32;;
17365;SDS011;8800;50.118;9.900;2023-04-28T03:43:31;10.13;;;4.20;;
17365;SDS011;8800;50.118;9.900;2023-04-28T03:45:59;10.73;;;4.43;;
17365;SDS011;8800;50.118;9.900;2023-04-28T03:48:25;7.55;;;4.45;;
17365;SDS011;8800;50.118;9.900;2023-04-28T03:50:52;12.68;;;4.53;;
17365;SDS011;8800;50.118;9.900;2023-04-28T03:53:18;12.82;;;4.55;;
17365;SDS011;8800;50.118;9.900;2023-04-28T03:55:45;10.32;;;4.47;;
17365;SDS011;8800;50.118;9.900;2023-04-28T03:58:12;11.40;;;4.78;;
17365;SDS011;8800;50.118;9.900;2023-04-28T04:00:39;10.95;;;4.47;;
17365;SDS011;8800;50.118;9.900;2023-04-28T04:03:05;8.93;;;5.00;;
17365;SDS011;8800;50.118;9.900;2023-04-28T04:05:32;17.15;;;5.05;;
17365;SDS011;8800;50.118;9.900;2023-04-28T04:07:58;10.60;;;4.80;;
17365;SDS011;8800;50.118;9.900;2023-04-28T04:10:24;10.52;;;4.93;;
17365;SDS011;8800;50.118;9.900;2023-04-28T04:12:51;11.65;;;4.60;;
17365;SDS011;8800;50.118;9.900;2023-04-28T04:15:19;11.90;;;5.05;;
17365;SDS011;8800;50.118;9.900;2023-04-28T04:17:45;10.38;;;4.93;;
17365;SDS011;8800;50.118;9.900;2023-04-28T04:20:12;11.57;;;5.03;;
17365;SDS011;8800;50.118;9.900;2023-04-28T04:22:38;8.85;;;4.97;;
17365;SDS011;8800;50.118;9.900;2023-04-28T04:25:05;10.27;;;5.22;;
17365;SDS011;8800;50.118;9.900;2023-04-28T04:27:31;13.60;;;5.53;;
17365;SDS011;8800;50.118;9.900;2023-04-28T04:29:58;11.15;;;5.72;;
17365;SDS011;8800;50.118;9.900;2023-04-28T04:32:26;10.02;;;5.30;;
17365;SDS011;8800;50.118;9.900;2023-04-28T04:34:52;10.48;;;4.85;;
17365;SDS011;8800;50.118;9.900;2023-04-28T04:37:19;11.82;;;5.55;;
17365;SDS011;8800;50.118;9.900;2023-04-28T04:39:45;13.20;;;5.85;;
17365;SDS011;8800;50.118;9.900;2023-04-28T04:42:11;9.38;;;5.53;;
17365;SDS011;8800;50.118;9.900;2023-04-28T04:44:38;13.82;;;6.10;;
17365;SDS011;8800;50.118;9.900;2023-04-28T04:47:04;11.48;;;5.97;;
17365;SDS011;8800;50.118;9.900;2023-04-28T04:49:32;13.80;;;5.55;;
17365;SDS011;8800;50.118;9.900;2023-04-28T04:51:59;8.77;;;5.43;;
17365;SDS011;8800;50.118;9.900;2023-04-28T04:54:25;9.85;;;5.35;;
17365;SDS011;8800;50.118;9.900;2023-04-28T04:56:52;11.30;;;5.78;;
17365;SDS011;8800;50.118;9.900;2023-04-28T04:59:18;11.32;;;5.85;;
17365;SDS011;8800;50.118;9.900;2023-04-28T05:01:44;11.10;;;5.57;;
17365;SDS011;8800;50.118;9.900;2023-04-28T05:04:11;11.38;;;6.15;;
17365;SDS011;8800;50.118;9.900;2023-04-28T05:06:39;10.40;;;5.68;;
17365;SDS011;8800;50.118;9.900;2023-04-28T05:09:05;10.77;;;5.53;;
17365;SDS011;8800;50.118;9.900;2023-04-28T05:11:32;10.68;;;5.72;;
17365;SDS011;8800;50.118;9.900;2023-04-28T05:13:58;12.80;;;6.13;;
17365;SDS011;8800;50.118;9.900;2023-04-28T05:16:25;9.55;;;5.65;;
17365;SDS011;8800;50.118;9.900;2023-04-28T05:18:51;12.38;;;5.63;;
17365;SDS011;8800;50.118;9.900;2023-04-28T05:21:18;13.07;;;5.85;;
17365;SDS011;8800;50.118;9.900;2023-04-28T05:23:45;13.48;;;6.03;;
17365;SDS011;8800;50.118;9.900;2023-04-28T05:26:12;11.13;;;6.20;;
17365;SDS011;8800;50.118;9.900;2023-04-28T05:28:38;11.55;;;6.20;;
17365;SDS011;8800;50.118;9.900;2023-04-28T05:31:05;10.82;;;6.28;;
17365;SDS011;8800;50.118;9.900;2023-04-28T05:33:31;9.73;;;5.70;;
17365;SDS011;8800;50.118;9.900;2023-04-28T05:35:58;10.00;;;5.82;;
17365;SDS011;8800;50.118;9.900;2023-04-28T05:38:24;12.95;;;6.40;;
17365;SDS011;8800;50.118;9.900;2023-04-28T05:40:52;12.65;;;5.80;;
17365;SDS011;8800;50.118;9.900;2023-04-28T05:43:19;13.00;;;6.28;;
17365;SDS011;8800;50.118;9.900;2023-04-28T05:45:45;12.73;;;6.07;;
17365;SDS011;8800;50.118;9.900;2023-04-28T05:48:12;9.88;;;5.80;;
17365;SDS011;8800;50.118;9.900;2023-04-28T05:50:38;19.13;;;6.82;;
17365;SDS011;8800;50.118;9.900;2023-04-28T05:53:05;11.70;;;6.30;;
17365;SDS011;8800;50.118;9.900;2023-04-28T05:55:31;12.55;;;6.95;;
17365;SDS011;8800;50.118;9.900;2023-04-28T05:58:01;11.25;;;6.30;;
17365;SDS011;8800;50.118;9.900;2023-04-28T06:00:28;10.65;;;6.30;;
17365;SDS011;8800;50.118;9.900;2023-04-28T06:02:54;13.13;;;6.63;;
17365;SDS011;8800;50.118;9.900;2023-04-28T06:05:21;12.05;;;6.90;;
17365;SDS011;8800;50.118;9.900;2023-04-28T06:07:47;12.95;;;6.80;;
17365;SDS011;8800;50.118;9.900;2023-04-28T06:10:14;14.27;;;6.68;;
17365;SDS011;8800;50.118;9.900;2023-04-28T06:12:41;15.38;;;6.57;;
17365;SDS011;8800;50.118;9.900;2023-04-28T06:15:09;13.20;;;7.32;;
17365;SDS011;8800;50.118;9.900;2023-04-28T06:17:35;15.05;;;6.95;;
17365;SDS011;8800;50.118;9.900;2023-04-28T06:20:02;11.50;;;7.20;;
17365;SDS011;8800;50.118;9.900;2023-04-28T06:22:29;14.05;;;7.32;;
17365;SDS011;8800;50.118;9.900;2023-04-28T06:24:55;13.68;;;7.28;;
17365;SDS011;8800;50.118;9.900;2023-04-28T06:27:21;13.38;;;7.20;;
17365;SDS011;8800;50.118;9.900;2023-04-28T06:29:48;12.15;;;7.53;;
17365;SDS011;8800;50.118;9.900;2023-04-28T06:32:16;14.02;;;7.57;;
17365;SDS011;8800;50.118;9.900;2023-04-28T06:34:43;12.90;;;7.30;;
17365;SDS011;8800;50.118;9.900;2023-04-28T06:37:09;17.65;;;7.55;;
17365;SDS011;8800;50.118;9.900;2023-04-28T06:39:35;13.80;;;7.35;;
17365;SDS011;8800;50.118;9.900;2023-04-28T06:42:02;13.85;;;7.97;;
17365;SDS011;8800;50.118;9.900;2023-04-28T06:44:28;17.95;;;8.23;;
17365;SDS011;8800;50.118;9.900;2023-04-28T06:46:55;15.63;;;8.05;;
17365;SDS011;8800;50.118;9.900;2023-04-28T06:49:22;12.73;;;8.23;;
17365;SDS011;8800;50.118;9.900;2023-04-28T06:51:49;17.67;;;8.38;;
17365;SDS011;8800;50.118;9.900;2023-04-28T06:54:15;15.05;;;8.85;;
17365;SDS011;8800;50.118;9.900;2023-04-28T06:56:42;13.55;;;8.27;;
17365;SDS011;8800;50.118;9.900;2023-04-28T06:59:08;12.88;;;8.38;;
17365;SDS011;8800;50.118;9.900;2023-04-28T07:01:35;14.20;;;8.10;;
17365;SDS011;8800;50.118;9.900;2023-04-28T07:04:01;15.18;;;8.27;;
17365;SDS011;8800;50.118;9.900;2023-04-28T07:06:29;16.83;;;8.90;;
17365;SDS011;8800;50.118;9.900;2023-04-28T07:08:56;15.15;;;8.75;;
17365;SDS011;8800;50.118;9.900;2023-04-28T07:11:22;16.40;;;8.15;;
17365;SDS011;8800;50.118;9.900;2023-04-28T07:13:49;13.95;;;8.07;;
17365;SDS011;8800;50.118;9.900;2023-04-28T07:16:16;15.05;;;8.13;;
17365;SDS011;8800;50.118;9.900;2023-04-28T07:18:42;16.20;;;8.32;;
17365;SDS011;8800;50.118;9.900;2023-04-28T07:21:08;17.08;;;8.02;;
17365;SDS011;8800;50.118;9.900;2023-04-28T07:23:36;15.48;;;8.75;;
17365;SDS011;8800;50.118;9.900;2023-04-28T07:26:04;16.33;;;7.97;;
17365;SDS011;8800;50.118;9.900;2023-04-28T07:28:30;19.00;;;8.80;;
17365;SDS011;8800;50.118;9.900;2023-04-28T07:30:57;20.85;;;9.18;;
17365;SDS011;8800;50.118;9.900;2023-04-28T07:33:23;14.45;;;9.38;;
17365;SDS011;8800;50.118;9.900;2023-04-28T07:35:50;17.17;;;8.77;;
17365;SDS011;8800;50.118;9.900;2023-04-28T07:38:17;19.02;;;8.50;;
17365;SDS011;8800;50.118;9.900;2023-04-28T07:40:45;17.55;;;8.77;;
17365;SDS011;8800;50.118;9.900;2023-04-28T07:43:12;15.32;;;9.35;;
17365;SDS011;8800;50.118;9.900;2023-04-28T07:45:38;18.00;;;9.00;;
17365;SDS011;8800;50.118;9.900;2023-04-28T07:48:05;16.63;;;9.10;;
17365;SDS011;8800;50.118;9.900;2023-04-28T07:50:31;15.82;;;9.48;;
17365;SDS011;8800;50.118;9.900;2023-04-28T07:52:58;14.60;;;8.90;;
17365;SDS011;8800;50.118;9.900;2023-04-28T07:55:24;17.17;;;10.15;;
17365;SDS011;8800;50.118;9.900;2023-04-28T07:57:52;17.70;;;9.77;;
17365;SDS011;8800;50.118;9.900;2023-04-28T08:00:19;19.80;;;10.25;;
17365;SDS011;8800;50.118;9.900;2023-04-28T08:02:45;16.67;;;10.23;;
17365;SDS011;8800;50.118;9.900;2023-04-28T08:05:12;18.42;;;10.10;;
17365;SDS011;8800;50.118;9.900;2023-04-28T08:07:38;18.35;;;10.50;;
17365;SDS011;8800;50.118;9.900;2023-04-28T08:10:05;20.83;;;10.10;;
17365;SDS011;8800;50.118;9.900;2023-04-28T08:12:33;21.25;;;10.88;;
17365;SDS011;8800;50.118;9.900;2023-04-28T08:15:00;22.77;;;10.75;;
17365;SDS011;8800;50.118;9.900;2023-04-28T08:17:28;18.35;;;10.60;;
17365;SDS011;8800;50.118;9.900;2023-04-28T08:19:54;17.25;;;10.40;;
17365;SDS011;8800;50.118;9.900;2023-04-28T08:22:20;21.10;;;10.88;;
17365;SDS011;8800;50.118;9.900;2023-04-28T08:24:47;19.45;;;9.95;;
17365;SDS011;8800;50.118;9.900;2023-04-28T08:27:13;17.00;;;10.27;;
17365;SDS011;8800;50.118;9.900;2023-04-28T08:29:40;22.25;;;10.63;;
17365;SDS011;8800;50.118;9.900;2023-04-28T08:32:07;20.90;;;10.93;;
17365;SDS011;8800;50.118;9.900;2023-04-28T08:34:34;19.25;;;10.85;;
17365;SDS011;8800;50.118;9.900;2023-04-28T08:37:00;24.23;;;10.90;;
17365;SDS011;8800;50.118;9.900;2023-04-28T08:39:27;21.60;;;11.38;;
17365;SDS011;8800;50.118;9.900;2023-04-28T08:41:55;21.92;;;11.98;;
17365;SDS011;8800;50.118;9.900;2023-04-28T08:44:21;26.20;;;12.52;;
17365;SDS011;8800;50.118;9.900;2023-04-28T08:46:48;20.38;;;10.60;;
17365;SDS011;8800;50.118;9.900;2023-04-28T08:49:17;17.50;;;11.07;;
17365;SDS011;8800;50.118;9.900;2023-04-28T08:51:44;17.58;;;10.70;;
17365;SDS011;8800;50.118;9.900;2023-04-28T08:54:12;18.02;;;10.20;;
17365;SDS011;8800;50.118;9.900;2023-04-28T08:56:39;15.90;;;9.88;;
17365;SDS011;8800;50.118;9.900;2023-04-28T08:59:09;16.42;;;10.52;;
17365;SDS011;8800;50.118;9.900;2023-04-28T09:01:35;18.10;;;10.30;;
17365;SDS011;8800;50.118;9.900;2023-04-28T09:04:02;14.13;;;9.38;;
17365;SDS011;8800;50.118;9.900;2023-04-28T09:06:32;16.52;;;10.77;;
17365;SDS011;8800;50.118;9.900;2023-04-28T09:11:49;18.63;;;10.35;;
17365;SDS011;8800;50.118;9.900;2023-04-28T09:14:15;15.48;;;9.45;;
17365;SDS011;8800;50.118;9.900;2023-04-28T09:16:42;14.43;;;9.48;;
17365;SDS011;8800;50.118;9.900;2023-04-28T09:19:08;14.98;;;9.20;;
17365;SDS011;8800;50.118;9.900;2023-04-28T09:21:46;14.45;;;9.10;;
17365;SDS011;8800;50.118;9.900;2023-04-28T09:24:23;14.65;;;9.20;;
17365;SDS011;8800;50.118;9.900;2023-04-28T09:26:50;18.20;;;9.57;;
17365;SDS011;8800;50.118;9.900;2023-04-28T09:29:17;16.58;;;10.68;;
17365;SDS011;8800;50.118;9.900;2023-04-28T09:31:43;20.08;;;11.05;;
17365;SDS011;8800;50.118;9.900;2023-04-28T09:34:10;16.20;;;10.02;;
17365;SDS011;8800;50.118;9.900;2023-04-28T09:36:36;17.00;;;11.25;;
17365;SDS011;8800;50.118;9.900;2023-04-28T09:39:04;17.15;;;9.95;;
17365;SDS011;8800;50.118;9.900;2023-04-28T09:41:34;21.40;;;10.63;;
17365;SDS011;8800;50.118;9.900;2023-04-28T09:44:08;15.55;;;10.13;;
17365;SDS011;8800;50.118;9.900;2023-04-28T09:46:35;16.48;;;9.88;;
17365;SDS011;8800;50.118;9.900;2023-04-28T09:49:01;15.75;;;10.73;;
17365;SDS011;8800;50.118;9.900;2023-04-28T09:51:28;18.85;;;10.95;;
17365;SDS011;8800;50.118;9.900;2023-04-28T09:53:54;16.80;;;11.20;;
17365;SDS011;8800;50.118;9.900;2023-04-28T09:56:23;19.77;;;11.45;;
17365;SDS011;8800;50.118;9.900;2023-04-28T09:58:50;19.67;;;12.00;;
17365;SDS011;8800;50.118;9.900;2023-04-28T10:01:17;19.25;;;11.25;;
17365;SDS011;8800;50.118;9.900;2023-04-28T10:03:43;18.95;;;12.48;;
17365;SDS011;8800;50.118;9.900;2023-04-28T10:06:10;19.15;;;12.45;;
17365;SDS011;8800;50.118;9.900;2023-04-28T10:08:37;17.58;;;12.05;;
17365;SDS011;8800;50.118;9.900;2023-04-28T10:11:04;19.67;;;11.35;;
17365;SDS011;8800;50.118;9.900;2023-04-28T10:13:33;25.05;;;15.50;;
17365;SDS011;8800;50.118;9.900;2023-04-28T10:16:00;16.65;;;10.93;;
17365;SDS011;8800;50.118;9.900;2023-04-28T10:18:27;17.27;;;11.45;;
17365;SDS011;8800;50.118;9.900;2023-04-28T10:20:56;18.63;;;11.43;;
17365;SDS011;8800;50.118;9.900;2023-04-28T10:26:11;16.15;;;10.57;;
17365;SDS011;8800;50.118;9.900;2023-04-28T10:28:44;17.58;;;11.18;;
17365;SDS011;8800;50.118;9.900;2023-04-28T10:31:11;17.48;;;11.13;;
17365;SDS011;8800;50.118;9.900;2023-04-28T10:33:38;16.92;;;11.45;;
17365;SDS011;8800;50.118;9.900;2023-04-28T10:36:05;17.08;;;10.93;;
17365;SDS011;8800;50.118;9.900;2023-04-28T10:38:32;20.42;;;11.90;;
17365;SDS011;8800;50.118;9.900;2023-04-28T10:40:59;15.57;;;11.77;;
17365;SDS011;8800;50.118;9.900;2023-04-28T10:43:34;16.05;;;11.27;;
17365;SDS011;8800;50.118;9.900;2023-04-28T10:46:06;18.92;;;12.00;;
17365;SDS011;8800;50.118;9.900;2023-04-28T10:48:51;15.52;;;11.20;;
17365;SDS011;8800;50.118;9.900;2023-04-28T10:54:09;17.25;;;11.57;;
17365;SDS011;8800;50.118;9.900;2023-04-28T10:56:35;17.88;;;10.95;;
17365;SDS011;8800;50.118;9.900;2023-04-28T10:59:02;16.05;;;11.05;;
17365;SDS011;8800;50.118;9.900;2023-04-28T11:01:49;20.00;;;11.18;;
17365;SDS011;8800;50.118;9.900;2023-04-28T11:04:16;19.13;;;11.75;;
17365;SDS011;8800;50.118;9.900;2023-04-28T11:06:43;17.98;;;11.32;;
17365;SDS011;8800;50.118;9.900;2023-04-28T11:12:03;12.82;;;9.88;;
17365;SDS011;8800;50.118;9.900;2023-04-28T11:14:30;15.50;;;10.32;;
17365;SDS011;8800;50.118;9.900;2023-04-28T11:16:58;18.27;;;11.75;;
17365;SDS011;8800;50.118;9.900;2023-04-28T11:19:25;15.05;;;10.52;;
17365;SDS011;8800;50.118;9.900;2023-04-28T11:21:57;12.93;;;10.02;;
17365;SDS011;8800;50.118;9.900;2023-04-28T11:24:24;13.48;;;10.35;;
17365;SDS011;8800;50.118;9.900;2023-04-28T11:26:51;16.17;;;9.90;;
17365;SDS011;8800;50.118;9.900;2023-04-28T11:29:17;14.73;;;10.45;;
17365;SDS011;8800;50.118;9.900;2023-04-28T11:31:55;15.48;;;10.00;;
17365;SDS011;8800;50.118;9.900;2023-04-28T11:34:23;14.45;;;10.20;;
17365;SDS011;8800;50.118;9.900;2023-04-28T11:36:50;15.07;;;9.60;;
17365;SDS011;8800;50.118;9.900;2023-04-28T11:39:16;15.85;;;10.80;;
17365;SDS011;8800;50.118;9.900;2023-04-28T11:41:50;17.13;;;9.95;;
17365;SDS011;8800;50.118;9.900;2023-04-28T11:44:17;14.02;;;10.10;;
17365;SDS011;8800;50.118;9.900;2023-04-28T11:46:44;13.82;;;9.93;;
17365;SDS011;8800;50.118;9.900;2023-04-28T11:49:14;12.18;;;9.27;;
17365;SDS011;8800;50.118;9.900;2023-04-28T11:51:42;16.48;;;9.98;;
17365;SDS011;8800;50.118;9.900;2023-04-28T11:54:11;11.80;;;8.93;;
17365;SDS011;8800;50.118;9.900;2023-04-28T11:56:39;17.10;;;11.43;;
17365;SDS011;8800;50.118;9.900;2023-04-28T11:59:06;20.00;;;13.02;;
17365;SDS011;8800;50.118;9.900;2023-04-28T12:01:33;16.85;;;11.43;;
17365;SDS011;8800;50.118;9.900;2023-04-28T12:04:01;16.15;;;11.80;;
17365;SDS011;8800;50.118;9.900;2023-04-28T12:06:28;18.77;;;10.68;;
17365;SDS011;8800;50.118;9.900;2023-04-28T12:08:56;15.95;;;11.05;;
17365;SDS011;8800;50.118;9.900;2023-04-28T12:11:28;16.50;;;11.20;;
17365;SDS011;8800;50.118;9.900;2023-04-28T12:14:04;14.73;;;10.43;;
17365;SDS011;8800;50.118;9.900;2023-04-28T12:16:38;15.95;;;10.80;;
17365;SDS011;8800;50.118;9.900;2023-04-28T12:19:08;15.07;;;10.88;;
17365;SDS011;8800;50.118;9.900;2023-04-28T12:21:35;16.05;;;9.73;;
17365;SDS011;8800;50.118;9.900;2023-04-28T12:24:13;15.65;;;10.35;;
17365;SDS011;8800;50.118;9.900;2023-04-28T12:26:39;14.48;;;9.70;;
17365;SDS011;8800;50.118;9.900;2023-04-28T12:29:06;17.58;;;10.30;;
17365;SDS011;8800;50.118;9.900;2023-04-28T12:31:46;13.80;;;9.48;;
17365;SDS011;8800;50.118;9.900;2023-04-28T12:34:12;15.80;;;10.60;;
17365;SDS011;8800;50.118;9.900;2023-04-28T12:36:39;13.75;;;10.38;;
17365;SDS011;8800;50.118;9.900;2023-04-28T12:39:10;16.75;;;11.30;;
17365;SDS011;8800;50.118;9.900;2023-04-28T12:41:39;16.05;;;10.57;;
17365;SDS011;8800;50.118;9.900;2023-04-28T12:44:05;16.13;;;10.88;;
17365;SDS011;8800;50.118;9.900;2023-04-28T12:46:32;17.70;;;10.98;;
17365;SDS011;8800;50.118;9.900;2023-04-28T12:48:58;17.20;;;10.90;;
17365;SDS011;8800;50.118;9.900;2023-04-28T12:51:25;16.13;;;10.48;;
17365;SDS011;8800;50.118;9.900;2023-04-28T12:53:53;15.70;;;10.52;;
17365;SDS011;8800;50.118;9.900;2023-04-28T12:56:20;15.02;;;10.98;;
17365;SDS011;8800;50.118;9.900;2023-04-28T12:58:49;15.57;;;10.63;;
17365;SDS011;8800;50.118;9.900;2023-04-28T13:01:15;15.95;;;11.00;;
17365;SDS011;8800;50.118;9.900;2023-04-28T13:03:42;16.52;;;10.50;;
17365;SDS011;8800;50.118;9.900;2023-04-28T13:06:09;18.20;;;10.98;;
17365;SDS011;8800;50.118;9.900;2023-04-28T13:08:35;14.48;;;10.60;;
17365;SDS011;8800;50.118;9.900;2023-04-28T13:11:02;15.93;;;11.60;;
17365;SDS011;8800;50.118;9.900;2023-04-28T13:13:29;16.20;;;11.48;;
17365;SDS011;8800;50.118;9.900;2023-04-28T13:15:57;15.35;;;10.80;;
17365;SDS011;8800;50.118;9.900;2023-04-28T13:18:25;14.95;;;11.20;;
17365;SDS011;8800;50.118;9.900;2023-04-28T13:20:52;16.75;;;10.88;;
17365;SDS011;8800;50.118;9.900;2023-04-28T13:23:18;18.05;;;10.80;;
17365;SDS011;8800;50.118;9.900;2023-04-28T13:25:45;16.67;;;11.05;;
17365;SDS011;8800;50.118;9.900;2023-04-28T13:28:11;18.60;;;10.85;;
17365;SDS011;8800;50.118;9.900;2023-04-28T13:30:38;15.15;;;10.38;;
17365;SDS011;8800;50.118;9.900;2023-04-28T13:33:06;16.67;;;9.93;;
17365;SDS011;8800;50.118;9.900;2023-04-28T13:35:32;16.70;;;9.57;;
17365;SDS011;8800;50.118;9.900;2023-04-28T13:37:59;13.43;;;8.82;;
17365;SDS011;8800;50.118;9.900;2023-04-28T13:40:26;15.88;;;8.13;;
17365;SDS011;8800;50.118;9.900;2023-04-28T13:42:53;12.10;;;8.55;;
17365;SDS011;8800;50.118;9.900;2023-04-28T13:45:19;13.32;;;8.30;;
17365;SDS011;8800;50.118;9.900;2023-04-28T13:47:46;12.55;;;7.90;;
17365;SDS011;8800;50.118;9.900;2023-04-28T13:50:14;11.38;;;7.88;;
17365;SDS011;8800;50.118;9.900;2023-04-28T13:52:41;9.23;;;6.90;;
17365;SDS011;8800;50.118;9.900;2023-04-28T13:55:08;10.40;;;7.53;;
17365;SDS011;8800;50.118;9.900;2023-04-28T13:57:35;10.90;;;7.03;;
17365;SDS011;8800;50.118;9.900;2023-04-28T14:00:01;11.98;;;8.23;;
17365;SDS011;8800;50.118;9.900;2023-04-28T14:02:28;13.73;;;8.35;;
17365;SDS011;8800;50.118;9.900;2023-04-28T14:04:55;14.13;;;8.80;;
17365;SDS011;8800;50.118;9.900;2023-04-28T14:07:23;11.70;;;7.80;;
17365;SDS011;8800;50.118;9.900;2023-04-28T14:09:50;11.20;;;8.57;;
17365;SDS011;8800;50.118;9.900;2023-04-28T14:12:16;12.43;;;8.45;;
17365;SDS011;8800;50.118;9.900;2023-04-28T14:14:45;11.95;;;8.00;;
17365;SDS011;8800;50.118;9.900;2023-04-28T14:17:11;10.02;;;6.63;;
17365;SDS011;8800;50.118;9.900;2023-04-28T14:19:38;9.27;;;6.97;;
17365;SDS011;8800;50.118;9.900;2023-04-28T14:22:04;10.30;;;7.28;;
17365;SDS011;8800;50.118;9.900;2023-04-28T14:24:32;8.98;;;6.82;;
17365;SDS011;8800;50.118;9.900;2023-04-28T14:26:58;10.07;;;8.13;;
17365;SDS011;8800;50.118;9.900;2023-04-28T14:29:25;11.23;;;7.80;;
17365;SDS011;8800;50.118;9.900;2023-04-28T14:31:51;10.02;;;7.90;;
17365;SDS011;8800;50.118;9.900;2023-04-28T14:34:17;9.90;;;7.78;;
17365;SDS011;8800;50.118;9.900;2023-04-28T14:36:44;12.13;;;8.95;;
17365;SDS011;8800;50.118;9.900;2023-04-28T14:39:11;10.20;;;7.40;;
17365;SDS011;8800;50.118;9.900;2023-04-28T14:41:39;10.98;;;7.97;;
17365;SDS011;8800;50.118;9.900;2023-04-28T14:44:06;10.15;;;7.15;;
17365;SDS011;8800;50.118;9.900;2023-04-28T14:46:32;11.25;;;8.10;;
17365;SDS011;8800;50.118;9.900;2023-04-28T14:48:58;14.13;;;8.27;;
17365;SDS011;8800;50.118;9.900;2023-04-28T14:51:26;11.52;;;8.10;;
17365;SDS011;8800;50.118;9.900;2023-04-28T14:53:53;13.70;;;8.25;;
17365;SDS011;8800;50.118;9.900;2023-04-28T14:56:19;11.07;;;8.57;;
17365;SDS011;8800;50.118;9.900;2023-04-28T14:58:47;12.48;;;8.93;;